Time;durP1;ratioP1;P1;durP2;ratioP2;P2;SDS_P1;SDS_P2;PMS_P1;PMS_P2;Temp;Humidity;BMP_temperature;BMP_pressure;BME280_temperature;BME280_humidity;BME280_pressure;Samples;Min_cycle;Max_cycle;Signal;HPM_P1;HPM_P2
2022/07/02 00:00:51;;;;;;;2.80;2.05;;;21.60;50.80;;;19.67;54.96;101797.41;12240114;19;20018;-82
2022/07/02 00:05:05;;;;;;;2.20;2.00;;;21.60;50.80;;;19.61;55.27;101781.13;12240823;19;20528;-82
2022/07/02 00:09:07;;;;;;;2.10;2.00;;;21.60;50.90;;;19.65;55.35;101795.81;12240120;19;20029;-82
2022/07/02 00:13:10;;;;;;;1.88;1.77;;;21.60;50.90;;;19.71;55.10;101816.56;12244250;19;20023;-82
2022/07/02 00:17:12;;;;;;;2.42;2.22;;;21.70;50.90;;;19.54;55.20;101795.78;12242277;19;20006;-82
2022/07/02 00:21:14;;;;;;;3.00;2.55;;;21.50;50.90;;;19.42;55.06;101786.97;12242534;19;20036;-83
2022/07/02 00:25:15;;;;;;;2.20;2.10;;;21.50;50.80;;;19.50;55.60;101811.09;12244808;19;20472;-82
2022/07/02 00:29:40;;;;;;;2.25;2.15;;;21.40;50.70;;;19.52;55.42;101824.19;12242888;19;20024;-82
2022/07/02 00:33:44;;;;;;;2.13;1.83;;;21.30;50.70;;;19.26;55.23;101811.13;12244656;19;20025;-82
2022/07/02 00:37:48;;;;;;;1.98;1.88;;;21.30;50.70;;;19.18;55.43;101818.78;12245585;19;20034;-82
2022/07/02 00:41:51;;;;;;;2.35;2.20;;;21.20;50.60;;;19.12;55.08;101822.75;12239623;19;20014;-82
2022/07/02 00:45:56;;;;;;;2.42;2.03;;;21.20;50.50;;;18.97;55.38;101811.47;12240782;19;20010;-82
2022/07/02 00:49:58;;;;;;;2.05;1.95;;;21.10;50.50;;;18.96;55.11;101825.66;12242214;19;20014;-82
2022/07/02 00:54:00;;;;;;;2.20;2.00;;;21.00;50.60;;;18.88;55.32;101820.09;12243104;19;20018;-82
2022/07/02 00:58:02;;;;;;;2.33;2.13;;;20.90;50.70;;;18.86;55.37;101826.44;12241022;19;20021;-83
2022/07/02 01:02:06;;;;;;;2.38;2.25;;;21.00;50.80;;;18.76;55.26;101810.38;12243964;19;20023;-83
2022/07/02 01:06:08;;;;;;;3.00;2.25;;;20.70;50.80;;;18.79;55.63;101820.75;12240766;19;20011;-83
2022/07/02 01:10:17;;;;;;;2.25;2.15;;;20.70;50.90;;;18.78;55.57;101829.63;12240936;19;20015;-82
2022/07/02 01:14:20;;;;;;;2.28;2.13;;;20.80;50.90;;;18.66;55.38;101820.75;12241971;19;20035;-82
2022/07/02 01:18:22;;;;;;;2.10;2.00;;;20.60;50.80;;;18.55;55.43;101821.53;12240484;19;20018;-82
2022/07/02 01:22:35;;;;;;;2.75;2.55;;;20.50;50.80;;;18.48;55.27;101828.22;12240920;19;20034;-82
2022/07/02 01:26:37;;;;;;;3.30;2.50;;;20.40;50.70;;;18.24;55.39;101798.22;12240114;19;20543;-82
2022/07/02 01:30:38;;;;;;;4.43;2.50;;;20.40;50.90;;;18.16;55.76;101790.81;12239416;19;20018;-82
2022/07/02 01:34:45;;;;;;;2.67;2.47;;;20.30;50.80;;;18.07;55.50;101804.69;12239041;19;20007;-82
2022/07/02 01:38:48;;;;;;;2.58;2.38;;;20.20;50.70;;;18.04;55.55;101803.09;12235297;19;20519;-82
2022/07/02 01:42:50;;;;;;;3.40;2.60;;;20.40;50.80;;;17.98;55.49;101805.31;12240104;19;20041;-82
2022/07/02 01:46:52;;;;;;;5.90;2.38;;;20.00;50.70;;;17.92;55.73;101815.34;12239301;19;20018;-82
2022/07/02 01:50:53;;;;;;;2.50;2.30;;;20.00;50.80;;;17.77;55.77;101805.81;12227417;19;20020;-82
2022/07/02 01:54:55;;;;;;;2.45;2.30;;;19.90;51.00;;;17.84;55.60;101827.41;12241142;19;20026;-82
2022/07/02 01:58:56;;;;;;;2.70;2.50;;;19.90;50.90;;;17.80;55.64;101831.22;12240900;19;20018;-82
2022/07/02 02:02:58;;;;;;;2.97;2.78;;;19.80;50.90;;;17.73;55.75;101824.59;12238210;19;20484;-82
2022/07/02 02:07:01;;;;;;;2.47;2.33;;;19.80;50.90;;;17.45;55.54;101795.63;12239202;19;20031;-82
2022/07/02 02:11:02;;;;;;;2.63;2.42;;;19.70;50.90;;;17.54;55.68;101817.91;12236246;19;20018;-82
2022/07/02 02:15:05;;;;;;;2.35;2.22;;;19.60;50.90;;;17.53;55.86;101834.72;12242132;19;20011;-82
2022/07/02 02:19:07;;;;;;;2.83;2.63;;;19.50;50.90;;;17.36;55.66;101827.06;12228086;19;20095;-82
2022/07/02 02:23:09;;;;;;;2.50;2.35;;;19.50;51.00;;;17.37;55.86;101820.84;12239440;19;20055;-82
2022/07/02 02:27:11;;;;;;;4.00;2.72;;;19.60;51.00;;;17.44;55.80;101853.81;12239130;19;20413;-83
2022/07/02 02:31:13;;;;;;;3.58;2.38;;;19.40;51.10;;;17.28;55.71;101834.66;12238326;19;20014;-82
2022/07/02 02:35:15;;;;;;;2.40;2.28;;;19.40;51.10;;;17.48;55.83;101877.28;12238834;19;20013;-82
2022/07/02 02:39:16;;;;;;;2.58;2.38;;;19.50;51.20;;;17.44;55.86;101869.66;12235255;19;20021;-82
2022/07/02 02:43:18;;;;;;;2.63;2.42;;;19.40;51.20;;;17.32;55.94;101850.19;12240778;19;20018;-82
2022/07/02 02:47:22;;;;;;;2.60;2.42;;;19.30;51.20;;;17.41;55.83;101865.41;12236190;19;20006;-82
2022/07/02 02:51:24;;;;;;;2.75;2.55;;;19.30;51.20;;;17.42;56.05;101876.84;12233191;19;20022;-81
2022/07/02 02:55:25;;;;;;;4.95;2.55;;;19.40;51.20;;;17.37;55.95;101876.31;12235162;19;20014;-82
2022/07/02 02:59:27;;;;;;;3.10;2.85;;;19.30;51.10;;;17.28;56.04;101880.38;12239551;19;20038;-82
2022/07/02 03:03:29;;;;;;;2.13;2.03;;;19.20;51.00;;;17.14;55.90;101881.25;12236079;19;20007;-82
2022/07/02 03:07:31;;;;;;;2.53;2.40;;;19.20;50.90;;;16.98;55.85;101870.84;12237923;19;20023;-82
2022/07/02 03:11:32;;;;;;;2.97;2.78;;;19.50;50.90;;;16.92;55.85;101887.06;12233085;19;20037;-79
2022/07/02 03:15:35;;;;;;;2.95;2.75;;;19.10;50.90;;;16.74;55.99;101878.50;12237110;19;20021;-80
2022/07/02 03:19:36;;;;;;;3.13;2.90;;;19.10;50.90;;;16.86;55.89;101918.28;12237379;19;20019;-79
2022/07/02 03:23:38;;;;;;;2.90;2.60;;;18.90;50.90;;;16.45;56.33;101867.13;12236923;19;20010;-80
2022/07/02 03:27:41;;;;;;;2.47;2.33;;;18.80;51.10;;;16.59;56.35;101901.41;12237959;19;20014;-79
2022/07/02 03:31:42;;;;;;;2.60;2.40;;;18.70;51.20;;;16.27;56.19;101863.81;12240836;19;20365;-79
2022/07/02 03:35:43;;;;;;;2.58;2.38;;;18.60;51.20;;;15.90;56.40;101826.53;12246743;19;20015;-79
2022/07/02 03:39:46;;;;;;;2.53;2.35;;;18.60;51.30;;;16.52;56.31;101938.78;12243127;19;20491;-79
2022/07/02 03:43:50;;;;;;;2.22;2.03;;;18.50;51.50;;;16.35;56.49;101909.03;12248450;19;20014;-80
2022/07/02 03:47:52;;;;;;;2.50;2.30;;;18.50;51.60;;;16.40;56.51;101915.81;12245890;19;20499;-80
2022/07/02 03:51:53;;;;;;;2.58;2.42;;;18.40;51.70;;;16.26;56.51;101912.22;12245804;19;20460;-80
2022/07/02 03:55:55;;;;;;;2.72;2.53;;;18.40;51.90;;;16.28;56.46;101926.16;12245767;19;20052;-80
2022/07/02 03:59:57;;;;;;;2.83;2.63;;;18.30;52.00;;;16.40;56.68;101950.09;12240571;19;20106;-80
2022/07/02 04:03:59;;;;;;;2.67;2.47;;;18.40;52.10;;;16.42;56.87;101946.41;12248884;19;20010;-80
2022/07/02 04:08:01;;;;;;;2.47;2.28;;;18.40;52.30;;;16.55;56.77;101954.41;12245282;19;20018;-80
2022/07/02 04:12:03;;;;;;;2.85;2.47;;;18.40;52.40;;;16.34;56.87;101909.13;12247591;19;20016;-79
2022/07/02 04:16:05;;;;;;;3.05;2.85;;;18.50;52.60;;;16.59;56.92;101948.88;12245663;19;20606;-79
2022/07/02 04:20:07;;;;;;;3.20;2.90;;;18.50;52.70;;;16.34;57.03;101906.50;12244223;19;20042;-79
2022/07/02 04:24:09;;;;;;;3.85;2.58;;;18.50;52.70;;;16.58;56.94;101943.72;12245530;19;20018;-79
2022/07/02 04:28:12;;;;;;;2.85;2.58;;;18.50;53.20;;;16.70;57.00;101964.03;12247028;19;20102;-80
2022/07/02 04:32:14;;;;;;;3.00;2.80;;;18.50;52.80;;;16.63;57.12;101944.25;12243925;19;20019;-80
2022/07/02 04:36:15;;;;;;;3.45;3.13;;;18.90;53.20;;;16.81;57.30;101968.69;12244777;19;20011;-79
2022/07/02 04:40:17;;;;;;;3.13;2.88;;;18.60;53.10;;;16.83;57.34;101940.44;12239638;19;20085;-79
2022/07/02 04:44:19;;;;;;;3.40;3.10;;;18.90;53.50;;;16.71;57.59;101912.97;12244207;19;20037;-79
2022/07/02 04:48:21;;;;;;;4.05;3.67;;;18.80;53.70;;;17.04;57.77;101948.81;12234737;19;20018;-80
2022/07/02 04:52:22;;;;;;;4.40;3.45;;;18.90;53.90;;;17.31;57.54;101963.81;12230928;19;20015;-80
2022/07/02 04:56:27;;;;;;;5.10;4.10;;;19.00;54.10;;;17.28;57.72;101935.81;12232085;19;20021;-79
2022/07/02 05:00:28;;;;;;;8.00;4.00;;;19.10;54.20;;;17.10;57.72;101885.06;12234283;19;20018;-80
2022/07/02 05:04:30;;;;;;;4.63;4.20;;;19.30;54.20;;;17.67;57.83;101961.44;12238847;19;20031;-79
2022/07/02 05:08:32;;;;;;;5.25;4.57;;;19.40;54.10;;;17.78;57.69;101949.34;12236022;19;20018;-79
2022/07/02 05:12:33;;;;;;;4.53;4.05;;;19.60;54.00;;;17.75;57.57;101938.97;12242805;19;20030;-81
2022/07/02 05:16:35;;;;;;;5.43;4.25;;;19.80;54.10;;;18.01;57.68;101963.69;12238732;19;20358;-79
2022/07/02 05:20:37;;;;;;;4.85;4.45;;;19.80;53.90;;;18.16;57.47;101980.31;12240046;19;20778;-80
2022/07/02 05:24:38;;;;;;;5.25;4.30;;;19.90;53.80;;;18.21;57.84;101979.06;12243066;19;20029;-80
2022/07/02 05:28:40;;;;;;;4.40;4.00;;;20.00;53.80;;;18.33;57.66;101980.91;12231752;19;20028;-79
2022/07/02 05:32:42;;;;;;;4.93;4.35;;;20.10;53.70;;;18.23;57.75;101952.53;12239867;19;20016;-79
2022/07/02 05:36:44;;;;;;;4.68;4.18;;;20.20;53.70;;;18.46;57.60;101975.59;12238362;19;20049;-79
2022/07/02 05:40:46;;;;;;;6.53;4.07;;;20.50;53.80;;;18.36;57.65;101934.84;12234076;19;20230;-79
2022/07/02 05:44:48;;;;;;;4.55;4.15;;;20.40;53.70;;;18.78;57.40;101988.44;12233245;19;20491;-79
2022/07/02 05:48:50;;;;;;;6.03;3.85;;;20.50;53.70;;;19.06;57.71;102008.50;12234999;19;20018;-79
2022/07/02 05:52:51;;;;;;;5.88;4.82;;;20.70;54.00;;;19.20;57.53;101981.06;12237556;19;20370;-79
2022/07/02 05:56:53;;;;;;;4.75;4.28;;;21.00;53.90;;;19.39;57.44;101989.38;12242162;19;20460;-79
2022/07/02 06:00:55;;;;;;;4.30;3.90;;;21.20;53.70;;;19.54;57.33;101978.63;12235671;19;20472;-79
2022/07/02 06:04:57;;;;;;;3.80;3.50;;;21.20;53.70;;;19.86;57.22;101992.19;12242036;19;20015;-79
2022/07/02 06:08:58;;;;;;;4.55;4.00;;;21.80;53.90;;;20.07;56.82;101998.53;12236051;19;20051;-80
2022/07/02 06:13:00;;;;;;;3.90;3.50;;;21.70;53.20;;;20.30;57.06;102003.91;12240788;19;20476;-80
2022/07/02 06:17:02;;;;;;;3.97;3.22;;;21.90;53.20;;;20.57;56.76;102016.91;12238550;19;20026;-80
2022/07/02 06:21:03;;;;;;;3.97;3.60;;;22.10;52.80;;;20.69;56.95;102010.66;12233591;19;20014;-80
2022/07/02 06:25:07;;;;;;;3.83;3.53;;;22.20;52.90;;;20.95;56.22;102019.25;12239156;19;20014;-81
2022/07/02 06:29:09;;;;;;;4.88;3.45;;;22.50;52.60;;;21.14;56.37;102023.94;12237130;19;20007;-80
2022/07/02 06:33:10;;;;;;;6.75;3.60;;;22.70;52.60;;;21.39;56.11;102036.16;12237077;19;20014;-80
2022/07/02 06:37:12;;;;;;;3.20;2.92;;;23.10;52.40;;;21.56;56.28;102032.13;12239732;19;20018;-80
2022/07/02 06:45:34;;;;;;;3.67;3.35;;;23.50;51.80;;;21.80;55.97;102033.75;12240575;19;20495;-80
2022/07/02 06:49:36;;;;;;;3.75;3.40;;;23.50;51.60;;;21.95;55.47;102028.97;12236230;19;20099;-80
2022/07/02 06:53:38;;;;;;;3.67;3.30;;;23.60;51.30;;;22.17;55.43;102030.69;12238510;19;20515;-80
2022/07/02 06:57:39;;;;;;;7.50;3.28;;;23.80;51.20;;;22.27;55.30;102026.31;12237422;19;20348;-80
2022/07/02 07:01:41;;;;;;;3.72;3.33;;;24.00;50.80;;;22.44;54.90;102044.38;12233792;19;20073;-80
2022/07/02 07:05:46;;;;;;;3.53;3.22;;;24.10;50.70;;;22.46;55.05;102029.09;12243708;19;20337;-80
2022/07/02 07:09:48;;;;;;;3.47;2.95;;;24.20;50.10;;;22.51;54.80;102016.25;12243905;19;20026;-81
2022/07/02 07:13:50;;;;;;;3.40;2.97;;;24.30;49.90;;;22.56;54.67;102018.53;12248759;19;20014;-80
2022/07/02 07:17:52;;;;;;;2.95;2.75;;;24.40;49.60;;;22.86;54.33;102040.84;12247330;19;20134;-81
2022/07/02 07:21:54;;;;;;;2.92;2.70;;;24.60;49.60;;;22.93;54.25;102023.34;12249272;19;20042;-80
2022/07/02 07:25:55;;;;;;;4.20;2.38;;;24.70;48.80;;;22.99;53.54;102006.00;12245582;19;20019;-80
2022/07/02 07:29:58;;;;;;;2.80;2.60;;;24.90;48.70;;;23.29;53.61;102043.28;12241145;19;20464;-80
2022/07/02 07:34:00;;;;;;;2.58;2.38;;;25.00;48.30;;;23.49;53.12;102062.81;12248055;19;20035;-81
2022/07/02 07:38:02;;;;;;;3.00;2.70;;;25.10;48.20;;;23.45;52.92;102031.25;12245124;19;20109;-80
2022/07/02 07:42:04;;;;;;;3.42;2.78;;;25.30;48.20;;;23.86;53.01;102056.91;12249419;19;20031;-80
2022/07/02 07:46:06;;;;;;;3.17;2.22;;;25.40;48.10;;;23.91;52.81;102035.16;12244634;19;20010;-79
2022/07/02 07:50:08;;;;;;;2.15;1.95;;;25.60;47.60;;;24.29;52.29;102056.47;12246772;19;20470;-79
2022/07/02 07:54:10;;;;;;;2.15;1.98;;;25.80;47.00;;;24.38;51.83;102033.41;12247211;19;20018;-79
2022/07/02 07:58:12;;;;;;;1.75;1.65;;;25.90;46.90;;;24.63;51.41;102045.34;12245645;19;20029;-79
2022/07/02 08:02:13;;;;;;;2.08;1.55;;;26.20;46.40;;;24.92;51.41;102061.31;12244359;19;20022;-79
2022/07/02 08:06:15;;;;;;;1.90;1.80;;;26.40;46.20;;;25.00;50.77;102057.03;12247852;19;20078;-79
2022/07/02 08:10:17;;;;;;;3.55;1.80;;;26.60;45.40;;;25.02;50.49;102050.56;12243488;19;20365;-79
2022/07/02 08:14:19;;;;;;;2.30;1.58;;;26.70;44.80;;;25.20;49.94;102068.53;12245658;19;20015;-78
2022/07/02 08:18:21;;;;;;;2.05;1.48;;;26.80;43.80;;;25.31;49.45;102063.84;12243372;19;20030;-79
2022/07/02 08:22:23;;;;;;;1.35;1.17;;;27.10;43.60;;;25.34;49.89;102052.00;12246204;19;20074;-79
2022/07/02 08:26:25;;;;;;;2.03;1.40;;;27.00;44.10;;;25.46;49.37;102049.94;12244721;19;20354;-79
2022/07/02 08:30:26;;;;;;;1.23;1.13;;;27.10;42.90;;;25.56;48.74;102064.13;12245050;19;20022;-79
2022/07/02 08:34:28;;;;;;;1.20;1.10;;;27.20;42.50;;;25.44;48.67;102058.16;12245513;19;20436;-79
2022/07/02 08:38:30;;;;;;;1.20;1.10;;;27.30;42.60;;;25.55;48.52;102078.50;12244363;19;20015;-79
2022/07/02 08:42:33;;;;;;;1.55;1.15;;;27.40;42.60;;;25.58;47.92;102091.56;12244802;19;20010;-78
2022/07/02 08:46:39;;;;;;;1.88;1.13;;;27.30;42.10;;;25.61;47.99;102089.41;12243682;19;20015;-78
2022/07/02 08:50:41;;;;;;;1.77;0.95;;;27.30;41.80;;;25.74;48.04;102090.91;12243126;19;20018;-79
2022/07/02 08:54:44;;;;;;;1.90;1.08;;;27.40;42.30;;;25.81;47.98;102074.06;12243421;19;20019;-79
2022/07/02 08:58:46;;;;;;;1.25;0.98;;;27.50;42.00;;;26.02;47.14;102070.28;12243430;19;20014;-79
2022/07/02 09:02:53;;;;;;;1.25;1.00;;;27.60;41.70;;;25.85;46.75;102029.16;12241713;19;20011;-78
2022/07/02 09:06:57;;;;;;;1.23;1.08;;;27.70;41.00;;;26.01;46.40;102053.41;12243789;19;20035;-78
2022/07/02 09:11:02;;;;;;;0.95;0.93;;;27.80;40.90;;;26.19;46.50;102081.97;12239564;19;20085;-78
2022/07/02 09:15:04;;;;;;;1.87;0.83;;;27.80;40.30;;;26.17;46.38;102065.25;12242888;19;20044;-78
2022/07/02 09:19:06;;;;;;;3.50;1.00;;;27.80;40.40;;;26.30;46.00;102056.81;12238670;19;20031;-78
2022/07/02 09:23:10;;;;;;;3.45;1.10;;;27.90;40.10;;;26.31;45.36;102043.25;12243185;19;20355;-79
2022/07/02 09:27:15;;;;;;;7.70;0.82;;;28.00;40.00;;;26.31;45.02;102064.69;12239434;19;20018;-78
2022/07/02 09:31:17;;;;;;;2.20;0.98;;;28.00;39.60;;;26.09;45.30;102044.59;12241576;19;20018;-79
2022/07/02 09:35:22;;;;;;;1.52;0.90;;;28.00;39.20;;;26.20;44.72;102038.16;12242583;19;20026;-78
2022/07/02 09:39:31;;;;;;;3.47;0.93;;;27.90;39.00;;;26.37;44.34;102047.16;12240227;19;20031;-79
2022/07/02 09:43:35;;;;;;;1.90;0.80;;;28.00;38.70;;;26.46;44.55;102024.78;12240561;19;20379;-79
2022/07/02 09:47:37;;;;;;;2.83;0.80;;;28.10;39.20;;;26.79;44.24;102041.06;12241225;19;20082;-78
2022/07/02 09:51:51;;;;;;;0.50;0.50;;;28.30;39.30;;;26.93;43.45;102017.22;12241019;19;20491;-79
2022/07/02 09:55:53;;;;;;;1.13;0.60;;;28.40;39.00;;;27.08;43.78;102019.25;12237871;19;20035;-80
2022/07/02 10:00:06;;;;;;;0.70;0.70;;;28.60;38.80;;;27.39;43.19;102038.38;12238887;19;20139;-79
2022/07/02 10:04:08;;;;;;;3.70;1.17;;;28.80;38.20;;;27.35;43.20;102026.25;12238929;19;20024;-79
2022/07/02 10:08:11;;;;;;;1.38;0.90;;;29.00;38.00;;;27.35;43.12;102021.75;12241191;19;20018;-79
2022/07/02 10:12:15;;;;;;;1.17;1.02;;;29.00;38.30;;;27.54;42.51;102031.38;12237743;19;20011;-79
2022/07/02 10:16:20;;;;;;;2.67;1.23;;;29.00;38.00;;;27.44;42.55;101985.06;12239975;19;20376;-79
2022/07/02 10:20:23;;;;;;;0.75;0.75;;;29.10;38.30;;;27.67;42.31;101992.44;12236412;19;20021;-79
2022/07/02 10:24:26;;;;;;;3.75;0.63;;;29.30;38.00;;;28.06;42.18;102046.38;12239734;19;20019;-80
2022/07/02 10:28:28;;;;;;;1.15;0.90;;;29.40;37.60;;;28.05;41.93;102028.56;12236515;19;20018;-79
2022/07/02 10:32:42;;;;;;;4.90;0.80;;;29.50;37.20;;;28.15;41.40;102034.63;12239677;19;20011;-79
2022/07/02 10:36:45;;;;;;;0.80;0.80;;;29.70;36.90;;;28.07;41.50;102005.09;12238000;19;20017;-79
2022/07/02 10:40:48;;;;;;;0.85;0.77;;;29.70;37.00;;;28.35;41.09;102023.50;12238751;19;20368;-79
2022/07/02 10:44:50;;;;;;;1.42;0.77;;;29.80;36.90;;;28.54;41.37;102019.66;12251648;19;20018;-78
2022/07/02 10:48:55;;;;;;;1.15;0.60;;;30.10;37.40;;;28.74;41.22;102017.44;12247579;19;20033;-79
2022/07/02 10:52:57;;;;;;;0.65;0.65;;;30.00;36.80;;;28.84;41.01;102015.34;12252417;19;20018;-78
2022/07/02 10:56:59;;;;;;;2.17;0.68;;;30.40;37.00;;;28.87;40.19;102017.72;12247528;19;20096;-79
2022/07/02 11:01:16;;;;;;;2.13;0.75;;;30.30;36.20;;;28.73;39.11;102002.28;12246154;19;20014;-79
2022/07/02 11:05:18;;;;;;;4.07;0.75;;;30.40;35.50;;;28.58;39.67;102011.06;12248342;19;20563;-79
2022/07/02 11:09:19;;;;;;;0.77;0.68;;;30.30;35.20;;;28.31;39.65;101993.47;12249939;19;20021;-78
2022/07/02 11:13:21;;;;;;;0.60;0.60;;;30.20;35.30;;;28.43;39.70;102020.84;12249634;19;20014;-79
2022/07/02 11:17:24;;;;;;;0.70;0.60;;;30.10;35.40;;;28.31;39.44;102006.91;12246937;19;20030;-79
2022/07/02 11:21:28;;;;;;;0.73;0.73;;;30.00;35.40;;;28.31;39.36;102006.91;12247090;19;20015;-79
2022/07/02 11:25:31;;;;;;;1.48;0.70;;;30.00;35.20;;;28.43;39.43;102010.09;12230376;19;20082;-78
2022/07/02 11:29:32;;;;;;;1.00;0.63;;;29.90;35.40;;;28.36;39.13;101963.41;12242868;19;20014;-80
2022/07/02 11:33:34;;;;;;;0.43;0.43;;;30.00;35.30;;;28.64;39.08;101979.97;12242822;19;20393;-79
2022/07/02 11:37:36;;;;;;;0.80;0.70;;;30.10;35.20;;;28.81;38.58;101996.88;12245474;19;20018;-79
2022/07/02 11:41:39;;;;;;;1.25;0.90;;;30.20;35.10;;;28.81;38.33;101989.69;12236886;19;20006;-82
2022/07/02 11:45:48;;;;;;;1.48;0.80;;;30.30;34.70;;;28.86;37.61;101992.66;12245739;19;20360;-80
2022/07/02 11:49:51;;;;;;;0.85;0.85;;;30.40;34.10;;;28.95;38.14;101992.63;12241624;19;20032;-81
2022/07/02 11:54:03;;;;;;;1.25;0.82;;;30.40;34.50;;;28.92;37.74;101983.03;12248313;19;20013;-80
2022/07/02 11:58:05;;;;;;;1.00;1.00;;;30.40;34.20;;;28.93;37.92;101984.75;12242868;19;20014;-80
2022/07/02 12:02:07;;;;;;;0.80;0.80;;;30.40;34.10;;;28.81;37.35;101970.00;12249132;19;20367;-80
2022/07/02 12:06:09;;;;;;;0.57;0.57;;;30.40;33.90;;;28.76;37.41;101961.59;12246446;19;20475;-81
2022/07/02 12:10:13;;;;;;;1.05;0.90;;;30.40;33.90;;;28.88;37.02;101971.81;12223362;19;20014;-81
2022/07/02 12:14:16;;;;;;;1.48;1.35;;;30.40;33.40;;;28.89;36.45;101978.88;12228169;19;20036;-80
2022/07/02 12:18:20;;;;;;;1.88;0.82;;;30.80;33.20;;;28.76;36.95;101975.91;12228563;19;20037;-79
2022/07/02 12:22:28;;;;;;;1.92;1.00;;;30.40;33.30;;;28.92;36.40;101988.41;12227926;19;20017;-78
2022/07/02 12:26:30;;;;;;;1.92;0.80;;;30.60;33.70;;;28.95;36.49;101965.72;12228171;19;20372;-79
2022/07/02 12:30:32;;;;;;;0.93;0.93;;;30.50;33.70;;;29.10;36.38;101978.28;12227603;19;20014;-79
2022/07/02 12:34:52;;;;;;;1.20;1.10;;;30.50;33.80;;;28.92;35.83;101934.63;12229946;19;20026;-79
2022/07/02 12:38:55;;;;;;;1.00;0.80;;;30.60;33.30;;;28.87;35.86;101926.28;12225602;19;20033;-79
2022/07/02 12:42:59;;;;;;;0.93;0.80;;;30.60;33.00;;;29.06;35.91;101970.75;12232008;19;20014;-77
2022/07/02 12:47:00;;;;;;;2.15;0.80;;;30.60;32.90;;;28.93;36.07;101947.09;12228360;19;20030;-79
2022/07/02 12:51:09;;;;;;;1.10;0.85;;;30.60;33.30;;;29.05;35.31;101951.06;12225091;19;20026;-79
2022/07/02 12:55:38;;;;;;;1.33;0.93;;;30.60;32.70;;;29.07;35.38;101949.06;12228737;19;20022;-77
2022/07/02 12:59:40;;;;;;;0.90;0.90;;;30.60;33.60;;;29.04;35.23;101952.09;12230205;19;20125;-79
2022/07/02 13:03:42;;;;;;;1.15;0.80;;;30.60;32.90;;;29.05;35.36;101961.84;12224724;19;20022;-79
2022/07/02 13:07:43;;;;;;;2.15;0.80;;;30.60;32.80;;;28.99;35.34;101956.31;12229861;19;20019;-79
2022/07/02 13:11:45;;;;;;;0.60;0.60;;;30.60;32.80;;;28.92;35.36;101942.69;12222861;19;20392;-79
2022/07/02 13:15:47;;;;;;;0.50;0.50;;;30.50;32.70;;;28.91;34.97;101943.72;12230956;19;20031;-79
2022/07/02 13:19:49;;;;;;;0.68;0.68;;;30.50;32.70;;;28.79;35.28;101926.31;12227545;19;20093;-79
2022/07/02 13:23:50;;;;;;;0.80;0.80;;;30.40;32.70;;;28.80;34.81;101926.13;12227783;19;20010;-79
2022/07/02 13:27:52;;;;;;;1.20;0.88;;;30.50;32.40;;;28.66;34.92;101895.44;12226920;19;20093;-79
2022/07/02 13:31:54;;;;;;;1.08;0.90;;;30.40;32.60;;;28.61;35.04;101886.25;12227307;19;20023;-79
2022/07/02 13:35:56;;;;;;;6.93;1.00;;;30.40;32.70;;;28.82;34.53;101899.09;12224949;19;20014;-79
2022/07/02 13:39:57;;;;;;;1.63;0.82;;;30.40;32.70;;;28.97;34.92;101910.75;12226832;19;20039;-79
2022/07/02 13:43:59;;;;;;;0.80;0.80;;;30.40;32.40;;;29.09;34.70;101916.59;12227391;19;20078;-79
2022/07/02 13:48:00;;;;;;;0.90;0.90;;;30.50;32.60;;;29.20;34.34;101907.28;12226741;19;20007;-79
2022/07/02 13:52:03;;;;;;;1.00;0.90;;;30.60;32.40;;;29.36;34.64;101917.94;12227398;19;20081;-79
2022/07/02 13:56:05;;;;;;;9.18;1.02;;;30.60;32.60;;;29.45;34.34;101906.06;12226974;19;20560;-79
2022/07/02 14:00:07;;;;;;;0.80;0.80;;;30.80;32.50;;;29.62;34.11;101911.31;12222784;19;20494;-79
2022/07/02 14:04:15;;;;;;;1.30;1.00;;;30.90;32.20;;;29.65;34.03;101902.91;12226932;19;20047;-79
2022/07/02 14:08:18;;;;;;;0.90;0.90;;;31.00;32.10;;;29.68;33.68;101889.09;12224762;19;20026;-79
2022/07/02 14:12:22;;;;;;;1.65;1.02;;;31.10;32.20;;;29.80;33.78;101900.25;12228001;19;20022;-79
2022/07/02 14:16:23;;;;;;;0.68;0.68;;;31.20;32.00;;;29.75;33.73;101887.34;12223734;19;20022;-79
2022/07/02 14:20:25;;;;;;;0.80;0.70;;;31.20;31.70;;;29.85;33.37;101879.00;12223286;19;20022;-82
2022/07/02 14:24:27;;;;;;;0.75;0.73;;;31.20;32.00;;;30.06;33.23;101897.13;12224740;19;20414;-78
2022/07/02 14:28:29;;;;;;;1.02;0.70;;;31.30;31.80;;;30.03;33.16;101878.63;12224196;19;20098;-78
2022/07/02 14:32:31;;;;;;;2.53;0.73;;;31.40;31.60;;;30.07;33.35;101875.38;12222600;19;21214;-78
2022/07/02 14:36:33;;;;;;;0.60;0.60;;;31.40;31.80;;;29.85;32.87;101836.75;12224525;19;20010;-78
2022/07/02 14:40:35;;;;;;;0.50;0.50;;;31.50;31.30;;;30.01;32.59;101868.06;12223449;19;20018;-78
2022/07/02 14:44:37;;;;;;;0.80;0.60;;;31.50;31.20;;;29.76;32.59;101848.63;12222882;19;20555;-79
2022/07/02 14:48:38;;;;;;;0.70;0.70;;;31.40;30.90;;;29.69;32.38;101836.91;12223139;19;20125;-78
2022/07/02 14:52:40;;;;;;;0.77;0.77;;;31.40;31.00;;;29.68;32.43;101837.94;12223110;19;20115;-78
2022/07/02 14:56:41;;;;;;;1.45;0.80;;;31.30;30.90;;;29.82;32.40;101861.34;12226612;19;20514;-78
2022/07/02 15:00:43;;;;;;;0.50;0.50;;;31.20;31.30;;;29.66;32.60;101826.50;12220088;19;20036;-79
2022/07/02 15:04:45;;;;;;;1.05;0.60;;;31.20;30.80;;;29.59;32.22;101822.84;12225277;19;20124;-78
2022/07/02 15:08:47;;;;;;;3.38;1.00;;;31.20;30.90;;;29.48;32.16;101798.03;12222540;19;20026;-78
2022/07/02 15:12:48;;;;;;;0.68;0.68;;;31.10;31.00;;;29.52;32.08;101796.66;12223595;19;20022;-78
2022/07/02 15:16:50;;;;;;;0.70;0.70;;;31.10;31.10;;;29.51;32.16;101789.59;12221017;19;20022;-78
2022/07/02 15:20:53;;;;;;;0.55;0.55;;;31.10;30.80;;;29.68;31.81;101808.31;12220314;19;20014;-79
2022/07/02 15:25:02;;;;;;;1.15;0.68;;;31.10;30.90;;;29.78;31.67;101819.63;12225586;19;20520;-78
2022/07/02 15:29:06;;;;;;;0.68;0.65;;;31.10;30.80;;;29.73;32.04;101797.81;12231983;19;20074;-77
2022/07/02 15:33:08;;;;;;;0.70;0.70;;;31.20;30.90;;;29.40;31.68;101744.28;12230489;19;20093;-77
2022/07/02 15:37:11;;;;;;;1.02;0.65;;;31.20;31.20;;;29.76;31.85;101786.69;12233130;19;20019;-77
2022/07/02 15:41:13;;;;;;;0.80;0.80;;;31.20;30.70;;;29.87;31.51;101807.78;12227565;19;20006;-77
2022/07/02 15:45:17;;;;;;;0.60;0.60;;;31.20;30.60;;;29.85;31.25;101799.03;12216187;19;20018;-78
2022/07/02 15:49:21;;;;;;;0.43;0.43;;;31.20;30.40;;;29.54;31.28;101756.06;12229706;19;20034;-78
2022/07/02 15:53:28;;;;;;;0.65;0.65;;;31.20;30.10;;;29.71;31.25;101789.09;12230613;19;20503;-78
2022/07/02 15:57:48;;;;;;;0.70;0.70;;;31.40;30.70;;;29.62;31.19;101765.94;12230115;19;20025;-78
2022/07/02 16:02:03;;;;;;;1.63;0.50;;;31.10;30.50;;;29.73;31.30;101776.25;12226588;19;20022;-78
2022/07/02 16:06:11;;;;;;;1.00;0.55;;;31.10;30.80;;;29.74;31.22;101769.88;12231550;19;20018;-78
2022/07/02 16:10:13;;;;;;;0.60;0.60;;;31.30;30.70;;;29.73;31.55;101757.41;12230175;19;20018;-79
2022/07/02 16:14:15;;;;;;;3.08;0.60;;;31.10;30.70;;;29.65;31.18;101744.91;12232762;19;20007;-78
2022/07/02 16:18:19;;;;;;;0.60;0.60;;;31.10;30.50;;;29.61;30.91;101740.03;12232110;19;20022;-79
2022/07/02 16:22:21;;;;;;;0.80;0.70;;;31.10;30.30;;;29.34;31.06;101721.63;12227460;19;20037;-78
2022/07/02 16:26:22;;;;;;;1.58;0.68;;;31.10;30.40;;;29.43;30.79;101748.47;12229367;19;20042;-78
2022/07/02 16:30:24;;;;;;;0.80;0.70;;;31.00;30.40;;;29.46;31.08;101764.25;12228138;19;20015;-77
2022/07/02 16:34:34;;;;;;;3.83;0.60;;;30.90;30.20;;;29.51;30.81;101769.91;12227600;19;20014;-78
2022/07/02 16:38:44;;;;;;;1.05;0.80;;;30.80;30.30;;;29.49;30.72;101772.81;12222211;19;20645;-78
2022/07/02 16:42:49;;;;;;;1.23;0.80;;;30.90;30.20;;;29.50;30.84;101773.63;12231391;19;20018;-78